sensor_id;sensor_type;location;lat;lon;timestamp;temperature;humidity
1461;DHT22;724;49.910;12.530;2024-02-15T00:00:29;6.90;99.90
1461;DHT22;724;49.910;12.530;2024-02-15T00:02:56;6.90;99.90
1461;DHT22;724;49.910;12.530;2024-02-15T00:05:23;6.90;99.90
1461;DHT22;724;49.910;12.530;2024-02-15T00:07:50;6.90;99.90
1461;DHT22;724;49.910;12.530;2024-02-15T00:10:18;6.90;99.90
1461;DHT22;724;49.910;12.530;2024-02-15T00:12:46;6.90;99.90
1461;DHT22;724;49.910;12.530;2024-02-15T00:15:19;6.90;99.90
1461;DHT22;724;49.910;12.530;2024-02-15T00:17:46;6.90;99.90
1461;DHT22;724;49.910;12.530;2024-02-15T00:20:13;6.90;99.90
1461;DHT22;724;49.910;12.530;2024-02-15T00:22:43;6.80;99.90
1461;DHT22;724;49.910;12.530;2024-02-15T00:25:10;6.90;99.90
1461;DHT22;724;49.910;12.530;2024-02-15T00:27:41;6.80;99.90
1461;DHT22;724;49.910;12.530;2024-02-15T00:30:09;6.80;99.90
1461;DHT22;724;49.910;12.530;2024-02-15T00:32:36;6.80;99.90
1461;DHT22;724;49.910;12.530;2024-02-15T00:35:03;6.80;99.90
1461;DHT22;724;49.910;12.530;2024-02-15T00:37:33;6.80;99.90
1461;DHT22;724;49.910;12.530;2024-02-15T00:40:00;6.90;99.90
1461;DHT22;724;49.910;12.530;2024-02-15T00:42:30;6.90;99.90
1461;DHT22;724;49.910;12.530;2024-02-15T00:44:59;6.90;99.90
1461;DHT22;724;49.910;12.530;2024-02-15T00:47:27;6.90;99.90
1461;DHT22;724;49.910;12.530;2024-02-15T00:49:54;6.90;99.90
1461;DHT22;724;49.910;12.530;2024-02-15T00:52:21;7.00;99.90
1461;DHT22;724;49.910;12.530;2024-02-15T00:54:48;6.90;99.90
1461;DHT22;724;49.910;12.530;2024-02-15T00:57:14;6.90;99.90
1461;DHT22;724;49.910;12.530;2024-02-15T00:59:41;6.90;99.90
1461;DHT22;724;49.910;12.530;2024-02-15T01:02:10;6.90;99.90
1461;DHT22;724;49.910;12.530;2024-02-15T01:04:38;6.90;99.90
1461;DHT22;724;49.910;12.530;2024-02-15T01:07:05;6.90;99.90
1461;DHT22;724;49.910;12.530;2024-02-15T01:09:33;6.90;99.90
1461;DHT22;724;49.910;12.530;2024-02-15T01:12:00;7.00;99.90
1461;DHT22;724;49.910;12.530;2024-02-15T01:14:29;6.90;99.90
1461;DHT22;724;49.910;12.530;2024-02-15T01:16:56;6.90;99.90
1461;DHT22;724;49.910;12.530;2024-02-15T01:19:24;6.90;99.90
1461;DHT22;724;49.910;12.530;2024-02-15T01:21:51;6.90;99.90
1461;DHT22;724;49.910;12.530;2024-02-15T01:24:19;6.90;99.90
1461;DHT22;724;49.910;12.530;2024-02-15T01:26:45;6.90;99.90
1461;DHT22;724;49.910;12.530;2024-02-15T01:29:13;6.90;99.90
1461;DHT22;724;49.910;12.530;2024-02-15T01:31:40;6.90;99.90
1461;DHT22;724;49.910;12.530;2024-02-15T01:34:07;6.90;99.90
1461;DHT22;724;49.910;12.530;2024-02-15T01:36:35;6.90;99.90
1461;DHT22;724;49.910;12.530;2024-02-15T01:39:02;6.90;99.90
1461;DHT22;724;49.910;12.530;2024-02-15T01:41:29;6.90;99.90
1461;DHT22;724;49.910;12.530;2024-02-15T01:43:57;6.90;99.90
1461;DHT22;724;49.910;12.530;2024-02-15T01:46:24;6.90;99.90
1461;DHT22;724;49.910;12.530;2024-02-15T01:48:51;7.00;99.90
1461;DHT22;724;49.910;12.530;2024-02-15T01:51:18;7.00;99.90
1461;DHT22;724;49.910;12.530;2024-02-15T01:53:46;6.90;99.90
1461;DHT22;724;49.910;12.530;2024-02-15T01:56:14;7.00;99.90
1461;DHT22;724;49.910;12.530;2024-02-15T01:58:43;6.90;99.90
1461;DHT22;724;49.910;12.530;2024-02-15T02:01:12;6.90;99.90
1461;DHT22;724;49.910;12.530;2024-02-15T02:03:39;6.90;99.90
1461;DHT22;724;49.910;12.530;2024-02-15T02:06:07;6.90;99.90
1461;DHT22;724;49.910;12.530;2024-02-15T02:08:34;6.90;99.90
1461;DHT22;724;49.910;12.530;2024-02-15T02:11:02;6.90;99.90
1461;DHT22;724;49.910;12.530;2024-02-15T02:13:30;6.80;99.90
1461;DHT22;724;49.910;12.530;2024-02-15T02:15:56;6.90;99.90
1461;DHT22;724;49.910;12.530;2024-02-15T02:18:25;6.90;99.90
1461;DHT22;724;49.910;12.530;2024-02-15T02:20:52;6.90;99.90
1461;DHT22;724;49.910;12.530;2024-02-15T02:23:21;6.90;99.90
1461;DHT22;724;49.910;12.530;2024-02-15T02:25:54;6.90;99.90
1461;DHT22;724;49.910;12.530;2024-02-15T02:28:21;6.80;99.90
1461;DHT22;724;49.910;12.530;2024-02-15T02:30:48;6.80;99.90
1461;DHT22;724;49.910;12.530;2024-02-15T02:33:15;6.80;99.90
1461;DHT22;724;49.910;12.530;2024-02-15T02:35:44;6.80;99.90
1461;DHT22;724;49.910;12.530;2024-02-15T02:38:13;6.90;99.90
1461;DHT22;724;49.910;12.530;2024-02-15T02:40:40;6.90;99.90
1461;DHT22;724;49.910;12.530;2024-02-15T02:43:08;6.80;99.90
1461;DHT22;724;49.910;12.530;2024-02-15T02:45:35;6.80;99.90
1461;DHT22;724;49.910;12.530;2024-02-15T02:48:02;6.80;99.90
1461;DHT22;724;49.910;12.530;2024-02-15T02:50:29;6.80;99.90
1461;DHT22;724;49.910;12.530;2024-02-15T02:52:57;6.80;99.90
1461;DHT22;724;49.910;12.530;2024-02-15T02:55:24;6.80;99.90
1461;DHT22;724;49.910;12.530;2024-02-15T02:57:52;6.80;99.90
1461;DHT22;724;49.910;12.530;2024-02-15T03:00:21;6.70;99.90
1461;DHT22;724;49.910;12.530;2024-02-15T03:02:48;6.80;99.90
1461;DHT22;724;49.910;12.530;2024-02-15T03:05:15;6.70;99.90
1461;DHT22;724;49.910;12.530;2024-02-15T03:07:46;6.80;99.90
1461;DHT22;724;49.910;12.530;2024-02-15T03:10:14;6.80;99.90
1461;DHT22;724;49.910;12.530;2024-02-15T03:12:41;6.80;99.90
1461;DHT22;724;49.910;12.530;2024-02-15T03:15:12;6.80;99.90
1461;DHT22;724;49.910;12.530;2024-02-15T03:17:42;6.70;99.90
1461;DHT22;724;49.910;12.530;2024-02-15T03:20:10;6.80;99.90
1461;DHT22;724;49.910;12.530;2024-02-15T03:22:38;6.80;99.90
1461;DHT22;724;49.910;12.530;2024-02-15T03:25:06;6.80;99.90
1461;DHT22;724;49.910;12.530;2024-02-15T03:27:34;6.80;99.90
1461;DHT22;724;49.910;12.530;2024-02-15T03:30:03;6.70;99.90
1461;DHT22;724;49.910;12.530;2024-02-15T03:32:30;6.70;99.90
1461;DHT22;724;49.910;12.530;2024-02-15T03:34:58;6.70;99.90
1461;DHT22;724;49.910;12.530;2024-02-15T03:37:26;6.80;99.90
1461;DHT22;724;49.910;12.530;2024-02-15T03:39:53;6.80;99.90
1461;DHT22;724;49.910;12.530;2024-02-15T03:42:20;6.80;99.90
1461;DHT22;724;49.910;12.530;2024-02-15T03:44:47;6.80;99.90
1461;DHT22;724;49.910;12.530;2024-02-15T03:47:14;6.80;99.90
1461;DHT22;724;49.910;12.530;2024-02-15T03:49:41;6.80;99.90
1461;DHT22;724;49.910;12.530;2024-02-15T03:52:09;6.80;99.90
1461;DHT22;724;49.910;12.530;2024-02-15T03:54:37;6.70;99.90
1461;DHT22;724;49.910;12.530;2024-02-15T03:57:04;6.80;99.90
1461;DHT22;724;49.910;12.530;2024-02-15T03:59:32;6.80;99.90
1461;DHT22;724;49.910;12.530;2024-02-15T04:02:00;6.80;99.90
1461;DHT22;724;49.910;12.530;2024-02-15T04:04:29;6.80;99.90
1461;DHT22;724;49.910;12.530;2024-02-15T04:06:56;6.80;99.90
1461;DHT22;724;49.910;12.530;2024-02-15T04:09:25;6.80;99.90
1461;DHT22;724;49.910;12.530;2024-02-15T04:11:51;6.90;99.90
1461;DHT22;724;49.910;12.530;2024-02-15T04:14:18;6.80;99.90
1461;DHT22;724;49.910;12.530;2024-02-15T04:16:45;6.80;99.90
1461;DHT22;724;49.910;12.530;2024-02-15T04:19:12;6.80;99.90
1461;DHT22;724;49.910;12.530;2024-02-15T04:21:39;6.90;99.90
1461;DHT22;724;49.910;12.530;2024-02-15T04:24:09;6.90;99.90
1461;DHT22;724;49.910;12.530;2024-02-15T04:26:37;6.90;99.90
1461;DHT22;724;49.910;12.530;2024-02-15T04:29:04;6.90;99.90
1461;DHT22;724;49.910;12.530;2024-02-15T04:31:34;6.90;99.90
1461;DHT22;724;49.910;12.530;2024-02-15T04:34:04;6.90;99.90
1461;DHT22;724;49.910;12.530;2024-02-15T04:36:31;6.90;99.90
1461;DHT22;724;49.910;12.530;2024-02-15T04:39:00;6.90;99.90
1461;DHT22;724;49.910;12.530;2024-02-15T04:41:28;6.90;99.90
1461;DHT22;724;49.910;12.530;2024-02-15T04:43:56;7.00;99.90
1461;DHT22;724;49.910;12.530;2024-02-15T04:46:23;7.00;99.90
1461;DHT22;724;49.910;12.530;2024-02-15T04:48:50;7.00;99.90
1461;DHT22;724;49.910;12.530;2024-02-15T04:51:17;7.00;99.90
1461;DHT22;724;49.910;12.530;2024-02-15T04:53:45;7.00;99.90
1461;DHT22;724;49.910;12.530;2024-02-15T04:56:13;7.00;99.90
1461;DHT22;724;49.910;12.530;2024-02-15T04:58:42;7.00;99.90
1461;DHT22;724;49.910;12.530;2024-02-15T05:01:19;7.00;99.90
1461;DHT22;724;49.910;12.530;2024-02-15T05:03:46;7.00;99.90
1461;DHT22;724;49.910;12.530;2024-02-15T05:06:13;7.00;99.90
1461;DHT22;724;49.910;12.530;2024-02-15T05:08:40;7.00;99.90
1461;DHT22;724;49.910;12.530;2024-02-15T05:11:09;7.00;99.90
1461;DHT22;724;49.910;12.530;2024-02-15T05:13:40;7.00;99.90
1461;DHT22;724;49.910;12.530;2024-02-15T05:16:07;7.00;99.90
1461;DHT22;724;49.910;12.530;2024-02-15T05:18:35;7.10;99.90
1461;DHT22;724;49.910;12.530;2024-02-15T05:21:04;7.10;99.90
1461;DHT22;724;49.910;12.530;2024-02-15T05:23:34;7.10;99.90
1461;DHT22;724;49.910;12.530;2024-02-15T05:26:01;7.00;99.90
1461;DHT22;724;49.910;12.530;2024-02-15T05:28:28;7.00;99.90
1461;DHT22;724;49.910;12.530;2024-02-15T05:31:11;7.10;99.90
1461;DHT22;724;49.910;12.530;2024-02-15T05:33:41;7.10;99.90
1461;DHT22;724;49.910;12.530;2024-02-15T05:36:09;7.00;99.90
1461;DHT22;724;49.910;12.530;2024-02-15T05:38:36;7.10;99.90
1461;DHT22;724;49.910;12.530;2024-02-15T05:41:03;7.10;99.90
1461;DHT22;724;49.910;12.530;2024-02-15T05:43:30;7.00;99.90
1461;DHT22;724;49.910;12.530;2024-02-15T05:45:57;7.10;99.90
1461;DHT22;724;49.910;12.530;2024-02-15T05:48:26;7.10;99.90
1461;DHT22;724;49.910;12.530;2024-02-15T05:50:54;7.10;99.90
1461;DHT22;724;49.910;12.530;2024-02-15T05:53:22;7.10;99.90
1461;DHT22;724;49.910;12.530;2024-02-15T05:55:49;7.10;99.90
1461;DHT22;724;49.910;12.530;2024-02-15T05:58:16;7.10;99.90
1461;DHT22;724;49.910;12.530;2024-02-15T06:00:43;7.10;99.90
1461;DHT22;724;49.910;12.530;2024-02-15T06:03:15;7.10;99.90
1461;DHT22;724;49.910;12.530;2024-02-15T06:05:42;7.00;99.90
1461;DHT22;724;49.910;12.530;2024-02-15T06:08:10;7.00;99.90
1461;DHT22;724;49.910;12.530;2024-02-15T06:10:38;7.00;99.90
1461;DHT22;724;49.910;12.530;2024-02-15T06:13:04;7.00;99.90
1461;DHT22;724;49.910;12.530;2024-02-15T06:15:31;7.00;99.90
1461;DHT22;724;49.910;12.530;2024-02-15T06:17:58;7.00;99.90
1461;DHT22;724;49.910;12.530;2024-02-15T06:20:25;6.90;99.90
1461;DHT22;724;49.910;12.530;2024-02-15T06:22:54;7.00;99.90
1461;DHT22;724;49.910;12.530;2024-02-15T06:25:23;6.90;99.90
1461;DHT22;724;49.910;12.530;2024-02-15T06:27:50;6.90;99.90
1461;DHT22;724;49.910;12.530;2024-02-15T06:30:23;6.90;99.90
1461;DHT22;724;49.910;12.530;2024-02-15T06:33:08;7.00;99.90
1461;DHT22;724;49.910;12.530;2024-02-15T06:36:04;6.90;99.90
1461;DHT22;724;49.910;12.530;2024-02-15T06:38:48;7.00;99.90
1461;DHT22;724;49.910;12.530;2024-02-15T06:41:34;7.00;99.90
1461;DHT22;724;49.910;12.530;2024-02-15T06:44:01;7.00;99.90
1461;DHT22;724;49.910;12.530;2024-02-15T06:46:28;7.10;99.90
1461;DHT22;724;49.910;12.530;2024-02-15T06:48:55;7.00;99.90
1461;DHT22;724;49.910;12.530;2024-02-15T06:51:23;7.00;99.90
1461;DHT22;724;49.910;12.530;2024-02-15T06:53:50;7.00;99.90
1461;DHT22;724;49.910;12.530;2024-02-15T06:56:21;7.00;99.90
1461;DHT22;724;49.910;12.530;2024-02-15T06:58:49;7.00;99.90
1461;DHT22;724;49.910;12.530;2024-02-15T07:01:16;7.00;99.90
1461;DHT22;724;49.910;12.530;2024-02-15T07:03:44;7.00;99.90
1461;DHT22;724;49.910;12.530;2024-02-15T07:06:11;7.00;99.90
1461;DHT22;724;49.910;12.530;2024-02-15T07:08:39;7.00;99.90
1461;DHT22;724;49.910;12.530;2024-02-15T07:11:06;7.10;99.90
1461;DHT22;724;49.910;12.530;2024-02-15T07:13:35;7.00;99.90
1461;DHT22;724;49.910;12.530;2024-02-15T07:16:07;7.00;99.90
1461;DHT22;724;49.910;12.530;2024-02-15T07:18:34;7.20;99.90
1461;DHT22;724;49.910;12.530;2024-02-15T07:21:01;7.10;99.90
1461;DHT22;724;49.910;12.530;2024-02-15T07:23:29;7.10;99.90
1461;DHT22;724;49.910;12.530;2024-02-15T07:25:56;7.10;99.90
1461;DHT22;724;49.910;12.530;2024-02-15T07:28:23;7.10;99.90
1461;DHT22;724;49.910;12.530;2024-02-15T07:30:52;7.20;99.90
1461;DHT22;724;49.910;12.530;2024-02-15T07:33:21;7.20;99.90
1461;DHT22;724;49.910;12.530;2024-02-15T07:35:49;7.30;99.90
1461;DHT22;724;49.910;12.530;2024-02-15T07:38:16;7.20;99.90
1461;DHT22;724;49.910;12.530;2024-02-15T07:40:43;7.30;99.90
1461;DHT22;724;49.910;12.530;2024-02-15T07:43:10;7.30;99.90
1461;DHT22;724;49.910;12.530;2024-02-15T07:45:37;7.20;99.90
1461;DHT22;724;49.910;12.530;2024-02-15T07:48:04;7.20;99.90
1461;DHT22;724;49.910;12.530;2024-02-15T07:50:33;7.20;99.90
1461;DHT22;724;49.910;12.530;2024-02-15T07:53:02;7.30;99.90
1461;DHT22;724;49.910;12.530;2024-02-15T07:55:30;7.30;99.90
1461;DHT22;724;49.910;12.530;2024-02-15T07:57:59;7.30;99.90
1461;DHT22;724;49.910;12.530;2024-02-15T08:00:26;7.30;99.90
1461;DHT22;724;49.910;12.530;2024-02-15T08:02:53;7.30;99.90
1461;DHT22;724;49.910;12.530;2024-02-15T08:05:20;7.30;99.90
1461;DHT22;724;49.910;12.530;2024-02-15T08:07:48;7.30;99.90
1461;DHT22;724;49.910;12.530;2024-02-15T08:10:15;7.30;99.90
1461;DHT22;724;49.910;12.530;2024-02-15T08:12:44;7.30;99.90
1461;DHT22;724;49.910;12.530;2024-02-15T08:15:12;7.30;99.90
1461;DHT22;724;49.910;12.530;2024-02-15T08:17:39;7.40;99.90
1461;DHT22;724;49.910;12.530;2024-02-15T08:20:09;7.40;99.90
1461;DHT22;724;49.910;12.530;2024-02-15T08:22:37;7.40;99.90
1461;DHT22;724;49.910;12.530;2024-02-15T08:25:07;7.50;99.90
1461;DHT22;724;49.910;12.530;2024-02-15T08:27:37;7.60;99.90
1461;DHT22;724;49.910;12.530;2024-02-15T08:30:08;7.60;99.90
1461;DHT22;724;49.910;12.530;2024-02-15T08:32:36;7.50;99.90
1461;DHT22;724;49.910;12.530;2024-02-15T08:35:03;7.50;99.90
1461;DHT22;724;49.910;12.530;2024-02-15T08:37:31;7.60;99.90
1461;DHT22;724;49.910;12.530;2024-02-15T08:39:59;7.60;99.90
1461;DHT22;724;49.910;12.530;2024-02-15T08:42:27;7.60;99.90
1461;DHT22;724;49.910;12.530;2024-02-15T08:44:54;7.60;99.90
1461;DHT22;724;49.910;12.530;2024-02-15T08:47:21;7.70;99.90
1461;DHT22;724;49.910;12.530;2024-02-15T08:49:47;7.60;99.90
1461;DHT22;724;49.910;12.530;2024-02-15T08:52:14;7.60;99.90
1461;DHT22;724;49.910;12.530;2024-02-15T08:54:43;7.60;99.90
1461;DHT22;724;49.910;12.530;2024-02-15T08:57:10;7.60;99.90
1461;DHT22;724;49.910;12.530;2024-02-15T08:59:40;7.70;99.90
1461;DHT22;724;49.910;12.530;2024-02-15T09:02:08;7.70;99.90
1461;DHT22;724;49.910;12.530;2024-02-15T09:04:35;7.70;99.90
1461;DHT22;724;49.910;12.530;2024-02-15T09:07:01;7.70;99.90
1461;DHT22;724;49.910;12.530;2024-02-15T09:09:29;7.70;99.90
1461;DHT22;724;49.910;12.530;2024-02-15T09:11:57;7.70;99.90
1461;DHT22;724;49.910;12.530;2024-02-15T09:14:23;7.70;99.90
1461;DHT22;724;49.910;12.530;2024-02-15T09:16:51;7.80;99.90
1461;DHT22;724;49.910;12.530;2024-02-15T09:19:18;7.80;99.90
1461;DHT22;724;49.910;12.530;2024-02-15T09:21:45;7.80;99.90
1461;DHT22;724;49.910;12.530;2024-02-15T09:24:13;7.70;99.90
1461;DHT22;724;49.910;12.530;2024-02-15T09:26:41;7.70;99.90
1461;DHT22;724;49.910;12.530;2024-02-15T09:29:08;7.90;99.90
1461;DHT22;724;49.910;12.530;2024-02-15T09:31:46;8.00;99.90
1461;DHT22;724;49.910;12.530;2024-02-15T09:34:15;8.20;99.90
1461;DHT22;724;49.910;12.530;2024-02-15T09:36:42;8.20;99.90
1461;DHT22;724;49.910;12.530;2024-02-15T09:39:08;8.40;99.90
1461;DHT22;724;49.910;12.530;2024-02-15T09:41:39;8.40;99.90
1461;DHT22;724;49.910;12.530;2024-02-15T09:44:08;8.40;99.90
1461;DHT22;724;49.910;12.530;2024-02-15T09:46:37;8.50;99.90
1461;DHT22;724;49.910;12.530;2024-02-15T09:49:35;8.30;99.90
1461;DHT22;724;49.910;12.530;2024-02-15T09:52:06;8.50;99.90
1461;DHT22;724;49.910;12.530;2024-02-15T09:54:39;8.50;99.90
1461;DHT22;724;49.910;12.530;2024-02-15T09:57:09;8.60;99.90
1461;DHT22;724;49.910;12.530;2024-02-15T09:59:36;8.70;99.90
1461;DHT22;724;49.910;12.530;2024-02-15T10:02:04;9.00;99.90
1461;DHT22;724;49.910;12.530;2024-02-15T10:04:37;9.00;99.90
1461;DHT22;724;49.910;12.530;2024-02-15T10:07:03;9.00;99.90
1461;DHT22;724;49.910;12.530;2024-02-15T10:09:30;9.20;99.90
1461;DHT22;724;49.910;12.530;2024-02-15T10:11:59;9.20;99.90
1461;DHT22;724;49.910;12.530;2024-02-15T10:14:28;9.10;99.90
1461;DHT22;724;49.910;12.530;2024-02-15T10:16:54;9.30;99.90
1461;DHT22;724;49.910;12.530;2024-02-15T10:19:22;9.20;99.90
1461;DHT22;724;49.910;12.530;2024-02-15T10:21:52;9.50;99.90
1461;DHT22;724;49.910;12.530;2024-02-15T10:24:22;10.10;99.90
1461;DHT22;724;49.910;12.530;2024-02-15T10:26:50;10.00;99.90
1461;DHT22;724;49.910;12.530;2024-02-15T10:29:18;9.60;99.90
1461;DHT22;724;49.910;12.530;2024-02-15T10:31:54;9.70;99.90
1461;DHT22;724;49.910;12.530;2024-02-15T10:34:21;10.60;99.90
1461;DHT22;724;49.910;12.530;2024-02-15T10:36:48;11.50;1.00
1461;DHT22;724;49.910;12.530;2024-02-15T10:39:20;11.50;99.90
1461;DHT22;724;49.910;12.530;2024-02-15T10:41:48;11.60;99.90
1461;DHT22;724;49.910;12.530;2024-02-15T10:44:16;11.10;99.90
1461;DHT22;724;49.910;12.530;2024-02-15T10:46:48;11.60;78.50
1461;DHT22;724;49.910;12.530;2024-02-15T10:49:18;11.00;41.20
1461;DHT22;724;49.910;12.530;2024-02-15T10:51:50;10.90;99.90
1461;DHT22;724;49.910;12.530;2024-02-15T10:54:29;11.00;99.90
1461;DHT22;724;49.910;12.530;2024-02-15T10:57:04;10.70;99.90
1461;DHT22;724;49.910;12.530;2024-02-15T10:59:34;10.10;99.90
1461;DHT22;724;49.910;12.530;2024-02-15T11:02:19;10.20;1.00
1461;DHT22;724;49.910;12.530;2024-02-15T11:04:53;10.20;1.00
1461;DHT22;724;49.910;12.530;2024-02-15T11:07:23;10.10;1.00
1461;DHT22;724;49.910;12.530;2024-02-15T11:09:53;10.20;1.00
1461;DHT22;724;49.910;12.530;2024-02-15T11:12:21;10.20;1.00
1461;DHT22;724;49.910;12.530;2024-02-15T11:14:49;10.20;1.00
1461;DHT22;724;49.910;12.530;2024-02-15T11:17:47;9.90;1.00
1461;DHT22;724;49.910;12.530;2024-02-15T11:20:45;10.10;1.00
1461;DHT22;724;49.910;12.530;2024-02-15T11:23:23;10.60;99.90
1461;DHT22;724;49.910;12.530;2024-02-15T11:25:52;10.60;99.90
1461;DHT22;724;49.910;12.530;2024-02-15T11:28:38;10.80;30.40
1461;DHT22;724;49.910;12.530;2024-02-15T11:31:09;11.50;1.00
1461;DHT22;724;49.910;12.530;2024-02-15T11:33:40;12.00;99.90
1461;DHT22;724;49.910;12.530;2024-02-15T11:36:08;11.80;64.70
1461;DHT22;724;49.910;12.530;2024-02-15T11:38:36;12.00;84.80
1461;DHT22;724;49.910;12.530;2024-02-15T11:41:05;12.60;1.00
1461;DHT22;724;49.910;12.530;2024-02-15T11:43:51;12.70;1.00
1461;DHT22;724;49.910;12.530;2024-02-15T11:46:22;12.20;1.00
1461;DHT22;724;49.910;12.530;2024-02-15T11:48:51;12.60;1.00
1461;DHT22;724;49.910;12.530;2024-02-15T11:51:28;11.40;1.00
1461;DHT22;724;49.910;12.530;2024-02-15T11:54:02;11.20;1.00
1461;DHT22;724;49.910;12.530;2024-02-15T11:56:54;11.30;1.00
1461;DHT22;724;49.910;12.530;2024-02-15T11:59:30;10.80;94.00
1461;DHT22;724;49.910;12.530;2024-02-15T12:02:08;10.70;99.90
1461;DHT22;724;49.910;12.530;2024-02-15T12:04:52;10.90;99.90
1461;DHT22;724;49.910;12.530;2024-02-15T12:07:36;11.00;99.90
1461;DHT22;724;49.910;12.530;2024-02-15T12:10:21;11.20;1.00
1461;DHT22;724;49.910;12.530;2024-02-15T12:13:07;11.10;99.90
1461;DHT22;724;49.910;12.530;2024-02-15T12:15:58;11.20;99.90
1461;DHT22;724;49.910;12.530;2024-02-15T12:18:43;11.30;99.90
1461;DHT22;724;49.910;12.530;2024-02-15T12:21:12;11.50;99.90
1461;DHT22;724;49.910;12.530;2024-02-15T12:23:41;11.10;1.00
1461;DHT22;724;49.910;12.530;2024-02-15T12:26:08;11.30;99.90
1461;DHT22;724;49.910;12.530;2024-02-15T12:28:36;11.20;49.00
1461;DHT22;724;49.910;12.530;2024-02-15T12:31:04;11.50;99.90
1461;DHT22;724;49.910;12.530;2024-02-15T12:33:32;11.60;72.10
1461;DHT22;724;49.910;12.530;2024-02-15T12:36:06;11.40;57.80
1461;DHT22;724;49.910;12.530;2024-02-15T12:38:33;10.90;99.90
1461;DHT22;724;49.910;12.530;2024-02-15T12:41:03;10.90;99.90
1461;DHT22;724;49.910;12.530;2024-02-15T12:43:30;11.10;99.90
1461;DHT22;724;49.910;12.530;2024-02-15T12:45:59;11.40;99.90
1461;DHT22;724;49.910;12.530;2024-02-15T12:48:26;11.70;99.90
1461;DHT22;724;49.910;12.530;2024-02-15T12:50:52;11.60;1.40
1461;DHT22;724;49.910;12.530;2024-02-15T12:53:23;11.50;98.00
1461;DHT22;724;49.910;12.530;2024-02-15T12:55:53;11.60;58.40
1461;DHT22;724;49.910;12.530;2024-02-15T12:58:21;11.90;99.90
1461;DHT22;724;49.910;12.530;2024-02-15T13:00:50;12.10;1.00
1461;DHT22;724;49.910;12.530;2024-02-15T13:03:18;12.00;1.00
1461;DHT22;724;49.910;12.530;2024-02-15T13:05:45;11.80;1.00
1461;DHT22;724;49.910;12.530;2024-02-15T13:08:14;11.60;20.30
1461;DHT22;724;49.910;12.530;2024-02-15T13:10:43;12.00;29.10
1461;DHT22;724;49.910;12.530;2024-02-15T13:13:10;11.90;1.00
1461;DHT22;724;49.910;12.530;2024-02-15T13:15:37;12.10;1.00
1461;DHT22;724;49.910;12.530;2024-02-15T13:18:04;12.10;1.00
1461;DHT22;724;49.910;12.530;2024-02-15T13:20:32;12.40;1.00
1461;DHT22;724;49.910;12.530;2024-02-15T13:23:02;11.70;1.00
1461;DHT22;724;49.910;12.530;2024-02-15T13:25:34;11.50;1.00
1461;DHT22;724;49.910;12.530;2024-02-15T13:28:01;11.80;65.70
1461;DHT22;724;49.910;12.530;2024-02-15T13:30:29;11.90;1.00
1461;DHT22;724;49.910;12.530;2024-02-15T13:32:56;11.40;1.00
1461;DHT22;724;49.910;12.530;2024-02-15T13:35:23;11.50;99.90
1461;DHT22;724;49.910;12.530;2024-02-15T13:37:53;11.80;57.10
1461;DHT22;724;49.910;12.530;2024-02-15T13:40:21;11.50;1.00
1461;DHT22;724;49.910;12.530;2024-02-15T13:42:50;11.40;1.00
1461;DHT22;724;49.910;12.530;2024-02-15T13:45:19;11.10;99.90
1461;DHT22;724;49.910;12.530;2024-02-15T13:47:48;11.30;99.90
1461;DHT22;724;49.910;12.530;2024-02-15T13:50:16;11.00;99.80
1461;DHT22;724;49.910;12.530;2024-02-15T13:52:43;10.80;99.90
1461;DHT22;724;49.910;12.530;2024-02-15T13:55:12;11.20;99.90
1461;DHT22;724;49.910;12.530;2024-02-15T13:57:40;11.40;99.90
1461;DHT22;724;49.910;12.530;2024-02-15T14:00:08;11.40;87.90
1461;DHT22;724;49.910;12.530;2024-02-15T14:02:39;11.40;1.00
1461;DHT22;724;49.910;12.530;2024-02-15T14:05:06;11.30;1.00
1461;DHT22;724;49.910;12.530;2024-02-15T14:07:34;11.30;1.00
1461;DHT22;724;49.910;12.530;2024-02-15T14:10:01;11.70;89.20
1461;DHT22;724;49.910;12.530;2024-02-15T14:12:29;11.90;1.00
1461;DHT22;724;49.910;12.530;2024-02-15T14:14:56;11.50;1.00
1461;DHT22;724;49.910;12.530;2024-02-15T14:17:23;11.60;1.00
1461;DHT22;724;49.910;12.530;2024-02-15T14:19:49;11.70;1.00
1461;DHT22;724;49.910;12.530;2024-02-15T14:22:16;11.80;1.00
1461;DHT22;724;49.910;12.530;2024-02-15T14:24:43;11.50;1.00
1461;DHT22;724;49.910;12.530;2024-02-15T14:27:10;11.50;1.00
1461;DHT22;724;49.910;12.530;2024-02-15T14:29:41;11.60;1.00
1461;DHT22;724;49.910;12.530;2024-02-15T14:32:29;11.50;1.00
1461;DHT22;724;49.910;12.530;2024-02-15T14:35:13;11.30;1.00
1461;DHT22;724;49.910;12.530;2024-02-15T14:37:42;11.20;1.00
1461;DHT22;724;49.910;12.530;2024-02-15T14:40:10;11.00;1.00
1461;DHT22;724;49.910;12.530;2024-02-15T14:42:39;11.00;1.00
1461;DHT22;724;49.910;12.530;2024-02-15T14:45:09;11.00;1.00
1461;DHT22;724;49.910;12.530;2024-02-15T14:47:36;10.90;1.00
1461;DHT22;724;49.910;12.530;2024-02-15T14:50:03;10.80;1.00
1461;DHT22;724;49.910;12.530;2024-02-15T14:52:34;10.60;33.50
1461;DHT22;724;49.910;12.530;2024-02-15T14:55:01;10.80;99.90
1461;DHT22;724;49.910;12.530;2024-02-15T14:57:30;10.60;99.90
1461;DHT22;724;49.910;12.530;2024-02-15T14:59:57;10.60;99.90
1461;DHT22;724;49.910;12.530;2024-02-15T15:02:25;10.70;99.90
1461;DHT22;724;49.910;12.530;2024-02-15T15:04:52;10.60;99.90
1461;DHT22;724;49.910;12.530;2024-02-15T15:07:44;10.70;99.90
1461;DHT22;724;49.910;12.530;2024-02-15T15:10:29;10.60;99.90
1461;DHT22;724;49.910;12.530;2024-02-15T15:13:13;10.40;99.90
1461;DHT22;724;49.910;12.530;2024-02-15T15:15:40;10.60;99.90
1461;DHT22;724;49.910;12.530;2024-02-15T15:18:08;10.50;99.90
1461;DHT22;724;49.910;12.530;2024-02-15T15:20:35;10.20;1.00
1461;DHT22;724;49.910;12.530;2024-02-15T15:23:03;10.30;1.00
1461;DHT22;724;49.910;12.530;2024-02-15T15:25:30;10.30;1.00
1461;DHT22;724;49.910;12.530;2024-02-15T15:27:56;10.30;1.00
1461;DHT22;724;49.910;12.530;2024-02-15T15:30:24;10.20;1.00
1461;DHT22;724;49.910;12.530;2024-02-15T15:32:50;10.20;1.00
1461;DHT22;724;49.910;12.530;2024-02-15T15:35:19;10.20;1.00
1461;DHT22;724;49.910;12.530;2024-02-15T15:37:47;10.30;1.00
1461;DHT22;724;49.910;12.530;2024-02-15T15:40:16;10.20;1.00
1461;DHT22;724;49.910;12.530;2024-02-15T15:42:43;10.20;1.00
1461;DHT22;724;49.910;12.530;2024-02-15T15:45:10;10.30;80.50
1461;DHT22;724;49.910;12.530;2024-02-15T15:47:38;10.30;71.70
1461;DHT22;724;49.910;12.530;2024-02-15T15:50:06;10.20;99.90
1461;DHT22;724;49.910;12.530;2024-02-15T15:52:34;10.10;99.90
1461;DHT22;724;49.910;12.530;2024-02-15T15:55:01;10.10;99.90
1461;DHT22;724;49.910;12.530;2024-02-15T15:57:27;10.10;99.90
1461;DHT22;724;49.910;12.530;2024-02-15T15:59:54;9.90;99.90
1461;DHT22;724;49.910;12.530;2024-02-15T16:02:22;10.00;1.00
1461;DHT22;724;49.910;12.530;2024-02-15T16:04:49;10.10;99.90
1461;DHT22;724;49.910;12.530;2024-02-15T16:07:20;10.10;99.90
1461;DHT22;724;49.910;12.530;2024-02-15T16:09:48;10.00;99.90
1461;DHT22;724;49.910;12.530;2024-02-15T16:12:15;9.70;1.00
1461;DHT22;724;49.910;12.530;2024-02-15T16:14:44;9.60;1.00
1461;DHT22;724;49.910;12.530;2024-02-15T16:17:12;9.60;2.50
1461;DHT22;724;49.910;12.530;2024-02-15T16:19:39;9.50;99.90
1461;DHT22;724;49.910;12.530;2024-02-15T16:22:07;9.60;1.00
1461;DHT22;724;49.910;12.530;2024-02-15T16:24:34;9.40;99.90
1461;DHT22;724;49.910;12.530;2024-02-15T16:27:03;9.40;99.90